createdAt,value
2019-03-04T00:01:53.286Z,94857.95
2019-03-04T00:04:19.604Z,94848.44
2019-03-04T00:06:45.787Z,94849.58
2019-03-04T00:09:12.026Z,94850.23
2019-03-04T00:11:40.707Z,94830.84
2019-03-04T00:14:07.620Z,94825.76
2019-03-04T00:16:33.851Z,94813.29
2019-03-04T00:19:00.019Z,94815.61
2019-03-04T00:21:26.148Z,94816.28
2019-03-04T00:23:52.356Z,94821.23
2019-03-04T00:26:19.655Z,94831.67
2019-03-04T00:28:45.717Z,94823.95
2019-03-04T00:31:11.897Z,94835.27
2019-03-04T00:33:38.022Z,94814.84
2019-03-04T00:36:06.485Z,94811.34
2019-03-04T00:38:32.654Z,94817.56
2019-03-04T00:40:58.827Z,94807.27
2019-03-04T00:43:24.997Z,94812.52
2019-03-04T00:45:51.087Z,94798.09
2019-03-04T00:48:18.360Z,94810.23
2019-03-04T00:50:44.585Z,94817.11
2019-03-04T00:53:10.783Z,94798.84
2019-03-04T00:55:36.980Z,94803.59
2019-03-04T00:58:03.243Z,94798.07
2019-03-04T01:00:29.298Z,94797.06
2019-03-04T01:02:55.429Z,94784.61
2019-03-04T01:05:21.788Z,94787.61
2019-03-04T01:07:48.022Z,94767.92
2019-03-04T01:10:16.805Z,94743.19
2019-03-04T01:12:45.783Z,94744.05
2019-03-04T01:15:17.857Z,94742.42
2019-03-04T01:17:44.614Z,94745.84
2019-03-04T01:20:15.329Z,94735.36
2019-03-04T01:22:41.718Z,94731.95
2019-03-04T01:25:11.076Z,94723.75
2019-03-04T01:27:37.335Z,94723.88
2019-03-04T01:30:07.036Z,94723.05
2019-03-04T01:32:33.192Z,94736.22
2019-03-04T01:34:59.263Z,94716.28
2019-03-04T01:37:25.454Z,94720.39
2019-03-04T01:39:51.607Z,94714.97
2019-03-04T01:42:19.747Z,94723.23
2019-03-04T01:44:45.808Z,94732.61
2019-03-04T01:47:11.916Z,94732.45
2019-03-04T01:49:38.056Z,94723.05
2019-03-04T01:52:04.124Z,94730.16
2019-03-04T01:54:30.242Z,94717.11
2019-03-04T01:56:56.411Z,94724.05
2019-03-04T01:59:22.495Z,94743.94
2019-03-04T02:01:48.692Z,94732.61
2019-03-04T02:04:14.815Z,94731.29
2019-03-04T02:06:42.711Z,94717.58
2019-03-04T02:09:09.167Z,94734.00
2019-03-04T02:11:35.435Z,94714.23
2019-03-04T02:14:01.627Z,94717.70
2019-03-04T02:16:28.358Z,94718.34
2019-03-04T02:18:54.551Z,94720.47
2019-03-04T02:21:20.851Z,94705.18
2019-03-04T02:23:46.926Z,94693.76
2019-03-04T02:26:14.816Z,94692.91
2019-03-04T02:28:40.878Z,94682.06
2019-03-04T02:31:07.155Z,94681.33
2019-03-04T02:33:33.503Z,94686.08
2019-03-04T02:35:59.740Z,94692.35
2019-03-04T02:38:25.818Z,94672.40
2019-03-04T02:40:51.997Z,94664.00
2019-03-04T02:43:21.923Z,94671.27
2019-03-04T02:45:48.327Z,94648.11
2019-03-04T02:48:14.466Z,94643.20
2019-03-04T02:50:40.552Z,94630.22
2019-03-04T02:53:06.731Z,94624.52
2019-03-04T02:55:32.842Z,94612.52
2019-03-04T02:57:59.005Z,94611.38
2019-03-04T03:00:25.094Z,94614.91
2019-03-04T03:02:51.218Z,94617.20
2019-03-04T03:05:17.310Z,94612.37
2019-03-04T03:07:43.665Z,94624.48
2019-03-04T03:10:11.756Z,94614.31
2019-03-04T03:12:37.882Z,94609.90
2019-03-04T03:15:06.560Z,94609.63
2019-03-04T03:17:33.863Z,94608.89
2019-03-04T03:20:00.589Z,94609.20
2019-03-04T03:22:26.698Z,94605.61
2019-03-04T03:24:52.789Z,94605.34
2019-03-04T03:27:18.917Z,94600.71
2019-03-04T03:29:45.031Z,94603.86
2019-03-04T03:32:11.112Z,94602.64
2019-03-04T03:34:37.479Z,94596.66
2019-03-04T03:37:04.242Z,94594.03
2019-03-04T03:39:30.398Z,94598.14
2019-03-04T03:41:58.793Z,94600.06
2019-03-04T03:44:25.005Z,94590.47
2019-03-04T03:46:51.175Z,94597.45
2019-03-04T03:49:17.256Z,94594.63
2019-03-04T03:51:43.981Z,94594.26
2019-03-04T03:54:10.109Z,94597.41
2019-03-04T03:56:36.310Z,94577.69
2019-03-04T03:59:02.786Z,94575.58
2019-03-04T04:01:29.086Z,94584.23
2019-03-04T04:03:55.825Z,94564.78
2019-03-04T04:06:21.983Z,94543.52
2019-03-04T04:08:48.149Z,94540.24
2019-03-04T04:11:14.266Z,94537.75
2019-03-04T04:13:41.465Z,94532.03
2019-03-04T04:16:07.737Z,94525.44
2019-03-04T04:18:34.248Z,94510.47
2019-03-04T04:21:01.008Z,94506.44
2019-03-04T04:23:27.946Z,94499.67
2019-03-04T04:25:54.278Z,94494.40
2019-03-04T04:28:20.472Z,94492.78
2019-03-04T04:30:46.537Z,94497.67
2019-03-04T04:33:12.685Z,94487.70
2019-03-04T04:35:38.858Z,94482.28
2019-03-04T04:38:05.016Z,94477.34
2019-03-04T04:40:31.071Z,94476.07
2019-03-04T04:42:57.230Z,94473.70
2019-03-04T04:45:23.319Z,94472.94
2019-03-04T04:47:49.517Z,94491.56
2019-03-04T04:50:27.830Z,94476.64
2019-03-04T04:52:54.019Z,94478.59
2019-03-04T04:55:20.080Z,94485.93
2019-03-04T04:57:46.286Z,94492.14
2019-03-04T05:00:17.008Z,94490.25
2019-03-04T05:02:43.248Z,94491.67
2019-03-04T05:05:09.540Z,94487.15
2019-03-04T05:07:35.683Z,94477.05
2019-03-04T05:10:03.552Z,94480.80
2019-03-04T05:12:32.440Z,94478.09
2019-03-04T05:14:58.551Z,94481.95
2019-03-04T05:17:24.806Z,94481.57
2019-03-04T05:19:51.040Z,94467.20
2019-03-04T05:22:17.399Z,94464.05
2019-03-04T05:24:44.068Z,94468.00
2019-03-04T05:27:10.475Z,94456.87
2019-03-04T05:29:36.682Z,94441.67
2019-03-04T05:32:02.966Z,94429.11
2019-03-04T05:34:29.087Z,94417.59
2019-03-04T05:36:56.760Z,94407.53
2019-03-04T05:39:23.665Z,94395.27
2019-03-04T05:41:50.610Z,94375.58
2019-03-04T05:44:16.752Z,94370.30
2019-03-04T05:46:42.979Z,94361.06
2019-03-04T05:49:10.978Z,94359.16
2019-03-04T05:51:37.545Z,94353.48
2019-03-04T05:54:03.934Z,94357.88
2019-03-04T05:56:30.163Z,94341.94
2019-03-04T05:58:56.791Z,94350.38
2019-03-04T06:01:28.751Z,94344.59
2019-03-04T06:03:58.048Z,94340.97
2019-03-04T06:06:44.500Z,94335.16
2019-03-04T06:09:13.747Z,94339.12
2019-03-04T06:11:40.126Z,94348.06
2019-03-04T06:14:07.722Z,94355.48
2019-03-04T06:16:35.591Z,94348.16
2019-03-04T06:19:01.883Z,94332.95
2019-03-04T06:21:28.162Z,94342.81
2019-03-04T06:23:54.233Z,94345.05
2019-03-04T06:26:20.501Z,94350.52
2019-03-04T06:28:46.600Z,94344.03
2019-03-04T06:31:12.780Z,94324.34
2019-03-04T06:33:41.513Z,94329.95
2019-03-04T06:36:07.885Z,94322.12
2019-03-04T06:38:33.970Z,94312.06
2019-03-04T06:41:00.136Z,94298.34
2019-03-04T06:43:26.238Z,94298.43
2019-03-04T06:45:55.008Z,94303.19
2019-03-04T06:48:21.336Z,94300.75
2019-03-04T06:50:52.087Z,94297.50
2019-03-04T06:53:28.093Z,94280.81
2019-03-04T06:56:13.223Z,94282.22
2019-03-04T06:58:53.127Z,94282.75
2019-03-04T07:01:23.180Z,94272.88
2019-03-04T07:03:55.103Z,94267.27
2019-03-04T07:06:21.307Z,94257.81
2019-03-04T07:08:52.426Z,94259.13
2019-03-04T07:11:18.601Z,94254.37
2019-03-04T07:13:45.830Z,94242.89
2019-03-04T07:16:12.126Z,94249.61
2019-03-04T07:18:38.201Z,94257.71
2019-03-04T07:21:04.423Z,94265.12
2019-03-04T07:23:30.610Z,94258.20
2019-03-04T07:25:57.499Z,94243.45
2019-03-04T07:28:23.826Z,94229.44
2019-03-04T07:30:54.397Z,94227.17
2019-03-04T07:33:38.594Z,94203.84
2019-03-04T07:36:04.867Z,94206.77
2019-03-04T07:38:43.153Z,94208.06
2019-03-04T07:41:10.414Z,94164.78
2019-03-04T07:43:36.909Z,94142.83
2019-03-04T07:46:03.303Z,94164.28
2019-03-04T07:48:29.579Z,94164.00
2019-03-04T07:50:59.477Z,94160.45
2019-03-04T07:54:06.129Z,94148.98
2019-03-04T07:56:43.666Z,94119.56
2019-03-04T07:59:12.759Z,94103.05
2019-03-04T08:01:39.062Z,94091.50
2019-03-04T08:04:05.417Z,94088.28
2019-03-04T08:06:31.762Z,94084.34
2019-03-04T08:09:13.360Z,94090.31
2019-03-04T08:12:03.142Z,94090.17
2019-03-04T08:14:30.325Z,94073.40
2019-03-04T08:17:00.073Z,94079.94
2019-03-04T08:19:32.367Z,94071.62
2019-03-04T08:22:09.795Z,94061.48
2019-03-04T08:24:41.011Z,94053.35
2019-03-04T08:27:18.779Z,94044.31
2019-03-04T08:29:46.666Z,94043.83
2019-03-04T08:32:18.231Z,94049.63
2019-03-04T08:34:56.100Z,94048.53
2019-03-04T08:37:22.453Z,94047.65
2019-03-04T08:39:53.243Z,94045.88
2019-03-04T08:43:06.554Z,94050.13
2019-03-04T08:45:50.308Z,94034.24
2019-03-04T08:48:32.920Z,94038.23
2019-03-04T08:57:04.081Z,94042.03
2019-03-04T09:03:02.899Z,94019.79
2019-03-04T09:08:33.836Z,93996.75
2019-03-04T09:11:09.777Z,94009.03
2019-03-04T09:13:38.766Z,94028.05
2019-03-04T09:16:07.033Z,94009.61
2019-03-04T09:18:33.362Z,94021.62
2019-03-04T09:20:59.599Z,94042.88
2019-03-04T09:23:27.061Z,94033.39
2019-03-04T09:26:04.677Z,94045.67
2019-03-04T09:28:33.730Z,94051.24
2019-03-04T09:30:59.971Z,94041.35
2019-03-04T09:33:27.426Z,94044.23
2019-03-04T09:35:53.891Z,94024.97
2019-03-04T09:38:20.121Z,94020.86
2019-03-04T09:40:46.356Z,94038.80
2019-03-04T09:43:12.903Z,94025.08
2019-03-04T09:45:47.587Z,94032.41
2019-03-04T09:48:13.777Z,94034.47
2019-03-04T09:50:53.801Z,94047.76
2019-03-04T09:53:19.952Z,94045.72
2019-03-04T09:55:49.103Z,94045.86
2019-03-04T09:58:15.570Z,94049.60
2019-03-04T10:00:54.932Z,94077.43
2019-03-04T10:03:30.996Z,94090.33
2019-03-04T10:06:30.927Z,94080.94
2019-03-04T10:09:06.969Z,94084.23
2019-03-04T10:12:00.711Z,94072.17
2019-03-04T10:14:50.461Z,94069.84
2019-03-04T10:17:35.724Z,94054.89
2019-03-04T10:20:17.410Z,94070.03
2019-03-04T10:23:21.075Z,94053.78
2019-03-04T10:26:03.128Z,94009.20
2019-03-04T10:28:48.535Z,94027.56
2019-03-04T10:31:53.600Z,94009.42
2019-03-04T10:34:40.425Z,93987.61
2019-03-04T10:37:22.961Z,93981.64
2019-03-04T10:40:11.160Z,93990.80
2019-03-04T10:42:46.869Z,94003.97
2019-03-04T10:45:31.650Z,93988.67
2019-03-04T10:47:58.047Z,93969.63
2019-03-04T10:50:24.335Z,93962.78
2019-03-04T10:52:50.657Z,93966.00
2019-03-04T10:55:18.235Z,93903.67
2019-03-04T10:57:45.596Z,93947.60
2019-03-04T11:00:18.314Z,93972.45
2019-03-04T11:02:44.931Z,93937.19
2019-03-04T11:05:11.531Z,93949.70
2019-03-04T11:07:37.809Z,93928.34
2019-03-04T11:10:07.766Z,93937.62
2019-03-04T11:12:34.053Z,93925.02
2019-03-04T11:15:00.345Z,93931.98
2019-03-04T11:17:26.530Z,93934.94
2019-03-04T11:19:54.189Z,93942.27
2019-03-04T11:22:21.086Z,93943.45
2019-03-04T11:24:49.447Z,93914.59
2019-03-04T11:27:17.153Z,93951.41
2019-03-04T11:29:45.099Z,93951.41
2019-03-04T11:32:11.393Z,93929.48
2019-03-04T11:34:37.586Z,93970.13
2019-03-04T11:37:04.001Z,93969.47
2019-03-04T11:39:44.101Z,93945.34
2019-03-04T11:42:10.634Z,93929.61
2019-03-04T11:44:40.399Z,93918.64
2019-03-04T11:47:07.806Z,93945.18
2019-03-04T11:49:35.477Z,93957.20
2019-03-04T11:52:01.994Z,93941.09
2019-03-04T11:54:29.130Z,93942.42
2019-03-04T11:56:56.575Z,93953.24
2019-03-04T11:59:22.863Z,93979.38
2019-03-04T12:01:49.479Z,93938.86
2019-03-04T12:04:15.798Z,93933.79
2019-03-04T12:06:44.744Z,93951.83
2019-03-04T12:09:13.525Z,93968.14
2019-03-04T12:11:40.434Z,93958.77
2019-03-04T12:14:06.681Z,93964.22
2019-03-04T12:16:36.163Z,93967.61
2019-03-04T12:19:02.529Z,93984.66
2019-03-04T12:21:28.850Z,93956.19
2019-03-04T12:23:55.181Z,93946.98
2019-03-04T12:26:21.704Z,93943.63
2019-03-04T12:28:52.933Z,93928.75
2019-03-04T12:31:19.204Z,93934.87
2019-03-04T12:33:45.662Z,93934.87
2019-03-04T12:36:12.011Z,93935.94
2019-03-04T12:38:38.325Z,93939.08
2019-03-04T12:41:04.730Z,93950.88
2019-03-04T12:43:31.018Z,93938.16
2019-03-04T12:45:57.323Z,93949.98
2019-03-04T12:48:23.642Z,93947.73
2019-03-04T12:50:49.959Z,93951.47
2019-03-04T12:53:16.395Z,93938.19
2019-03-04T12:55:42.786Z,93920.05
2019-03-04T12:58:09.191Z,93936.30
2019-03-04T13:00:36.636Z,93930.22
2019-03-04T13:03:03.144Z,93951.39
2019-03-04T13:05:29.593Z,93943.66
2019-03-04T13:07:56.531Z,93952.45
2019-03-04T13:10:25.852Z,93964.20
2019-03-04T13:12:52.232Z,93940.16
2019-03-04T13:15:29.217Z,93930.23
2019-03-04T13:17:56.111Z,93942.89
2019-03-04T13:20:26.774Z,93930.45
2019-03-04T13:22:53.116Z,93930.84
2019-03-04T13:25:19.328Z,93944.59
2019-03-04T13:27:45.670Z,93940.80
2019-03-04T13:30:24.989Z,93938.75
2019-03-04T13:32:52.355Z,93939.91
2019-03-04T13:35:30.589Z,93946.53
2019-03-04T13:37:56.876Z,93946.53
2019-03-04T13:40:23.293Z,93945.94
2019-03-04T13:42:49.781Z,93937.93
2019-03-04T13:45:16.489Z,93953.47
2019-03-04T13:47:42.627Z,93961.50
2019-03-04T13:50:24.091Z,93958.55
2019-03-04T13:52:50.195Z,93961.19
2019-03-04T13:55:16.523Z,93954.52
2019-03-04T13:57:42.850Z,93958.44
2019-03-04T14:00:17.914Z,93966.23
2019-03-04T14:02:44.142Z,93948.86
2019-03-04T14:05:12.832Z,93951.89
2019-03-04T14:07:39.715Z,93928.00
2019-03-04T14:10:15.671Z,93937.05
2019-03-04T14:12:41.880Z,93948.14
2019-03-04T14:15:14.820Z,93944.27
2019-03-04T14:17:41.029Z,93943.30
2019-03-04T14:20:09.653Z,93945.43
2019-03-04T14:22:40.319Z,93960.48
2019-03-04T14:25:09.833Z,93950.28
2019-03-04T14:27:36.611Z,93945.19
2019-03-04T14:30:09.299Z,93939.09
2019-03-04T14:32:35.504Z,93933.80
2019-03-04T14:35:02.069Z,93923.30
2019-03-04T14:37:28.530Z,93938.94
2019-03-04T14:39:54.948Z,93938.27
2019-03-04T14:42:21.883Z,93930.55
2019-03-04T14:44:49.202Z,93933.98
2019-03-04T14:47:16.306Z,93939.88
2019-03-04T14:49:45.083Z,93945.66
2019-03-04T14:52:11.154Z,93918.27
2019-03-04T14:54:37.374Z,93927.73
2019-03-04T14:57:04.544Z,93931.61
2019-03-04T14:59:31.036Z,93921.30
2019-03-04T15:01:57.166Z,93942.77
2019-03-04T15:04:23.306Z,93900.16
2019-03-04T15:06:50.997Z,93928.17
2019-03-04T15:09:17.227Z,93931.53
2019-03-04T15:11:43.482Z,93950.17
2019-03-04T15:14:11.677Z,93944.84
2019-03-04T15:16:37.811Z,93950.34
2019-03-04T15:19:04.040Z,93940.28
2019-03-04T15:21:30.352Z,93946.39
2019-03-04T15:23:56.595Z,93952.23
2019-03-04T15:26:22.784Z,93945.31
2019-03-04T15:28:48.957Z,93944.16
2019-03-04T15:31:15.286Z,93920.88
2019-03-04T15:33:42.091Z,93919.40
2019-03-04T15:36:08.948Z,93907.00
2019-03-04T15:38:35.318Z,93903.53
2019-03-04T15:41:01.807Z,93904.41
2019-03-04T15:43:28.051Z,93903.90
2019-03-04T15:45:57.049Z,93912.69
2019-03-04T15:48:28.412Z,93898.33
2019-03-04T15:50:55.724Z,93902.67
2019-03-04T15:53:23.101Z,93908.43
2019-03-04T15:55:49.461Z,93896.66
2019-03-04T15:58:18.036Z,93920.47
2019-03-04T16:00:44.348Z,93948.29
2019-03-04T16:03:10.792Z,93952.83
2019-03-04T16:05:37.023Z,93964.73
2019-03-04T16:08:07.629Z,94010.55
2019-03-04T16:10:35.950Z,94003.98
2019-03-04T16:13:02.518Z,94021.66
2019-03-04T16:15:29.356Z,94032.84
2019-03-04T16:17:55.731Z,94036.03
2019-03-04T16:20:22.235Z,94008.95
2019-03-04T16:22:50.497Z,94025.44
2019-03-04T16:25:17.862Z,94006.34
2019-03-04T16:27:44.189Z,94011.20
2019-03-04T16:30:17.251Z,94000.81
2019-03-04T16:32:43.459Z,94006.14
2019-03-04T16:35:09.639Z,94017.78
2019-03-04T16:37:36.337Z,94002.51
2019-03-04T16:40:11.669Z,94006.94
2019-03-04T16:42:38.110Z,94024.43
2019-03-04T16:45:06.945Z,94014.79
2019-03-04T16:47:33.301Z,94004.47
2019-03-04T16:49:59.515Z,93995.95
2019-03-04T16:52:26.849Z,93988.90
2019-03-04T16:54:59.983Z,93993.85
2019-03-04T16:57:28.880Z,93990.89
2019-03-04T16:59:55.209Z,93998.96
2019-03-04T17:02:23.872Z,94004.55
2019-03-04T17:04:50.090Z,94040.69
2019-03-04T17:07:20.670Z,94046.81
2019-03-04T17:09:48.892Z,94051.19
2019-03-04T17:12:15.553Z,94062.27
2019-03-04T17:14:42.071Z,94057.13
2019-03-04T17:17:09.784Z,94076.19
2019-03-04T17:19:36.088Z,94079.92
2019-03-04T17:22:02.340Z,94083.27
2019-03-04T17:24:28.658Z,94085.92
2019-03-04T17:26:54.885Z,94074.30
2019-03-04T17:29:21.101Z,94090.10
2019-03-04T17:31:47.543Z,94088.30
2019-03-04T17:34:13.858Z,94086.05
2019-03-04T17:36:40.387Z,94081.16
2019-03-04T17:39:07.087Z,94092.02
2019-03-04T17:41:36.389Z,94067.71
2019-03-04T17:44:02.909Z,94072.11
2019-03-04T17:46:30.296Z,94077.23
2019-03-04T17:48:56.439Z,94081.70
2019-03-04T17:51:23.272Z,94093.51
2019-03-04T17:53:49.468Z,94080.52
2019-03-04T17:56:16.531Z,94079.84
2019-03-04T17:58:42.682Z,94090.28
2019-03-04T18:01:09.093Z,94084.61
2019-03-04T18:03:35.463Z,94089.31
2019-03-04T18:06:01.633Z,94093.59
2019-03-04T18:08:28.453Z,94091.75
2019-03-04T18:10:54.503Z,94083.70
2019-03-04T18:13:20.764Z,94104.02
2019-03-04T18:15:46.934Z,94137.28
2019-03-04T18:18:14.144Z,94183.15
2019-03-04T18:20:44.828Z,94201.95
2019-03-04T18:23:11.062Z,94181.95
2019-03-04T18:25:44.060Z,94232.69
2019-03-04T18:28:21.808Z,94225.97
2019-03-04T18:31:12.612Z,94225.88
2019-03-04T18:33:52.168Z,94240.81
2019-03-04T18:36:39.348Z,94231.05
2019-03-04T18:39:21.515Z,94237.78
2019-03-04T18:42:03.742Z,94247.90
2019-03-04T18:44:46.123Z,94254.28
2019-03-04T18:47:31.118Z,94262.77
2019-03-04T18:49:57.346Z,94269.98
2019-03-04T18:52:23.944Z,94272.93
2019-03-04T18:54:50.187Z,94276.83
2019-03-04T18:57:16.344Z,94270.13
2019-03-04T18:59:44.382Z,94277.98
2019-03-04T19:02:10.683Z,94283.37
2019-03-04T19:04:37.362Z,94291.38
2019-03-04T19:07:08.222Z,94269.16
2019-03-04T19:09:39.275Z,94281.25
2019-03-04T19:12:03.714Z,94295.48
2019-03-04T19:14:48.534Z,94307.25
2019-03-04T19:17:42.935Z,94307.90
2019-03-04T19:19:48.933Z,94318.66
2019-03-04T19:22:16.957Z,94320.45
2019-03-04T19:24:43.488Z,94333.05
2019-03-04T19:27:12.287Z,94334.84
2019-03-04T19:29:43.429Z,94336.11
2019-03-04T19:32:08.978Z,94336.11
2019-03-04T19:34:47.867Z,94348.22
2019-03-04T19:37:09.397Z,94352.30
2019-03-04T19:39:35.984Z,94362.88
2019-03-04T19:42:26.780Z,94375.43
2019-03-04T19:44:32.739Z,94380.66
2019-03-04T19:46:59.319Z,94380.66
2019-03-04T19:49:25.621Z,94380.97
2019-03-04T19:51:53.637Z,94371.47
2019-03-04T19:54:20.057Z,94377.31
2019-03-04T19:56:48.484Z,94367.50
2019-03-04T19:59:23.944Z,94379.88
2019-03-04T20:01:51.447Z,94390.46
2019-03-04T20:04:17.845Z,94393.03
2019-03-04T20:06:44.562Z,94400.70
2019-03-04T20:09:11.280Z,94401.67
2019-03-04T20:11:40.707Z,94409.81
2019-03-04T20:14:08.298Z,94425.78
2019-03-04T20:16:34.773Z,94425.41
2019-03-04T20:19:01.148Z,94428.66
2019-03-04T20:21:28.605Z,94435.48
2019-03-04T20:23:54.897Z,94434.99
2019-03-04T20:26:22.917Z,94439.38
2019-03-04T20:28:52.958Z,94451.58
2019-03-04T20:31:19.410Z,94450.10
2019-03-04T20:33:45.740Z,94459.03
2019-03-04T20:36:12.262Z,94460.79
2019-03-04T20:38:42.162Z,94463.22
2019-03-04T20:41:08.529Z,94465.28
2019-03-04T20:43:36.024Z,94463.95
2019-03-04T20:46:03.854Z,94468.34
2019-03-04T20:48:31.098Z,94484.28
2019-03-04T20:50:58.627Z,94478.27
2019-03-04T20:53:26.853Z,94480.50
2019-03-04T20:55:53.212Z,94483.73
2019-03-04T20:58:19.359Z,94490.30
2019-03-04T21:00:45.672Z,94489.50
2019-03-04T21:03:12.351Z,94495.84
2019-03-04T21:05:38.758Z,94504.35
2019-03-04T21:08:05.910Z,94507.76
2019-03-04T21:10:32.295Z,94507.28
2019-03-04T21:13:06.344Z,94510.73
2019-03-04T21:15:35.831Z,94514.13
2019-03-04T21:18:02.343Z,94515.73
2019-03-04T21:20:31.774Z,94522.94
2019-03-04T21:23:00.402Z,94518.34
2019-03-04T21:25:43.276Z,94534.64
2019-03-04T21:28:25.335Z,94533.81
2019-03-04T21:30:59.851Z,94541.81
2019-03-04T21:33:53.764Z,94543.77
2019-03-04T21:36:40.669Z,94540.33
2019-03-04T21:39:10.275Z,94546.08
2019-03-04T21:41:40.976Z,94532.53
2019-03-04T21:44:16.721Z,94547.68
2019-03-04T21:46:55.124Z,94544.42
2019-03-04T21:49:22.187Z,94543.63
2019-03-04T21:52:19.786Z,94552.39
2019-03-04T21:57:27.375Z,94556.88
2019-03-04T21:59:53.970Z,94567.13
2019-03-04T22:02:33.209Z,94563.36
2019-03-04T22:05:06.199Z,94568.58
2019-03-04T22:07:34.277Z,94567.60
2019-03-04T22:10:01.739Z,94571.36
2019-03-04T22:12:28.454Z,94563.39
2019-03-04T22:14:55.062Z,94573.05
2019-03-04T22:17:21.374Z,94568.02
2019-03-04T22:19:47.491Z,94567.57
2019-03-04T22:22:13.638Z,94561.88
2019-03-04T22:24:39.762Z,94577.17
2019-03-04T22:27:05.978Z,94583.70
2019-03-04T22:29:34.908Z,94579.16
2019-03-04T22:32:01.649Z,94590.76
2019-03-04T22:34:27.753Z,94599.41
2019-03-04T22:36:53.901Z,94604.48
2019-03-04T22:39:20.143Z,94599.13
2019-03-04T22:41:46.913Z,94600.90
2019-03-04T22:44:14.033Z,94607.56
2019-03-04T22:46:41.622Z,94607.13
2019-03-04T22:49:07.858Z,94602.73
2019-03-04T22:51:34.051Z,94595.20
2019-03-04T22:54:00.143Z,94617.70
2019-03-04T22:56:26.364Z,94617.41
2019-03-04T22:58:52.563Z,94624.27
2019-03-04T23:01:37.219Z,94615.42
2019-03-04T23:04:07.659Z,94631.23
2019-03-04T23:06:46.475Z,94632.03
2019-03-04T23:09:16.593Z,94633.39
2019-03-04T23:11:58.510Z,94638.61
2019-03-04T23:14:28.065Z,94641.05
2019-03-04T23:16:54.276Z,94645.55
2019-03-04T23:19:20.580Z,94642.97
2019-03-04T23:21:46.649Z,94646.27
2019-03-04T23:24:12.978Z,94641.05
2019-03-04T23:26:39.160Z,94644.48
2019-03-04T23:29:05.756Z,94644.66
2019-03-04T23:31:31.858Z,94650.06
2019-03-04T23:33:58.125Z,94653.83
2019-03-04T23:36:24.222Z,94656.29
2019-03-04T23:38:50.509Z,94654.66
2019-03-04T23:41:16.686Z,94655.34
2019-03-04T23:43:42.902Z,94658.72
2019-03-04T23:46:09.037Z,94654.12
2019-03-04T23:48:35.191Z,94651.37
2019-03-04T23:51:01.405Z,94646.14
2019-03-04T23:53:31.127Z,94647.95
2019-03-04T23:55:57.439Z,94654.66
2019-03-04T23:58:23.836Z,94658.09
